Nearby METAR Reports

 

KMLP - Mullan Pass
Updated: Sun, 17-Feb-2019 2:53pm PST
Light snow, Mist, Overcast
Light snow, Mist, Overcast
 Wind from calm
Wind: Calm
Temperature: 10°F , -12°C
Dew Point: 7°F , -14°C
Humidity: 85%
Barometer: 29.87 inHg , 1011.5 hPa
Summary: Light snow, Mist
Clouds: Overcast
Visibility: 3/4 mile , 1.2 km
Cloud details: Overcast 600 ft
2019/02/17 22:53 KMLP 172253Z AUTO 00000KT 3/4SM -SN BR OVC006 M12/M14 A2987 RMK AO2 CIG 003V008 SLP186 P0000 T11221144 $
KCOE - Coeur d Alene
Updated: Sun, 17-Feb-2019 2:56pm PST
Light snow, Partly cloudy
Light snow, Partly cloudy
 Wind from NNE
Wind: NNE 22 mph , 35 km/h, Gust: 28 mph , 44 km/h
Temperature: 25°F , -4°C
Wind Chill: 10°F , -12°C
Dew Point: 18°F , -8°C
Humidity: 74%
Barometer: 30.10 inHg , 1019.3 hPa
Summary: Light Snow
Clouds: Partly Cloudy
Visibility: 9 miles , 14 km
Cloud details: Few Clouds 2900 ft
Partly Cloudy 3700 ft
2019/02/17 22:56 KCOE 172256Z AUTO 02019G24KT 9SM -SN FEW029 SCT037 M04/M08 A3010 RMK AO2 SNB15 SLP238 P0000 T10441083 FZRANO
 
KLWS - Lewiston
Updated: Sun, 17-Feb-2019 2:56pm PST
Light snow, Overcast
Light snow, Overcast
 Wind from WNW
Wind: WNW 7 mph , 11 km/h
Temperature: 34°F , 1°C
Wind Chill: 28°F , -2°C
Dew Point: 27°F , -3°C
Humidity: 75%
Barometer: 30.08 inHg , 1018.6 hPa
Summary: Light Snow
Clouds: Overcast
Visibility: 8 miles , 13 km
Cloud details: Overcast 1700 ft
2019/02/17 22:56 KLWS 172256Z 30006KT 8SM -SN OVC017 01/M03 A3008 RMK AO2 SNB56 SLP200 P0000 T00111028 $
KGEG - Spokane Intl
Updated: Sun, 17-Feb-2019 2:53pm PST
Light snow, Overcast
Light snow, Overcast
 Wind from N
Wind: N 15 mph , 24 km/h
Temperature: 27°F , -3°C
Wind Chill: 15°F , -9°C
Dew Point: 18°F , -8°C
Humidity: 69%
Barometer: 30.07 inHg , 1018.3 hPa
Summary: Light Snow
Clouds: Overcast
Visibility: 9 miles , 14 km
Cloud details: Partly Cloudy 2600 ft
Mostly Cloudy 4500 ft
Overcast 6500 ft
2019/02/17 22:53 KGEG 172253Z 01013KT 9SM -SN SCT026 BKN045 OVC065 M03/M08 A3007 RMK AO2 SNB48 SLP208 P0000 T10281078